createdAt,value
2023-02-19T00:01:54.429Z,2.67
2023-02-19T00:04:23.905Z,2.93
2023-02-19T00:06:52.547Z,2.77
2023-02-19T00:09:21.812Z,2.43
2023-02-19T00:11:50.126Z,1.80
2023-02-19T00:14:21.991Z,2.50
2023-02-19T00:16:50.448Z,2.00
2023-02-19T00:19:21.425Z,2.03
2023-02-19T00:21:53.314Z,2.33
2023-02-19T00:24:23.595Z,1.80
2023-02-19T00:26:51.684Z,1.77
2023-02-19T00:29:22.739Z,2.20
2023-02-19T00:31:51.049Z,1.90
2023-02-19T00:34:19.227Z,2.10
2023-02-19T00:36:47.314Z,1.60
2023-02-19T00:39:18.521Z,1.77
2023-02-19T00:41:47.023Z,1.30
2023-02-19T00:44:15.919Z,1.30
2023-02-19T00:46:46.909Z,1.83
2023-02-19T00:49:19.433Z,1.77
2023-02-19T00:51:48.140Z,2.13
2023-02-19T00:54:18.020Z,1.53
2023-02-19T00:56:46.723Z,1.27
2023-02-19T00:59:15.028Z,1.37
2023-02-19T01:01:44.356Z,1.57
2023-02-19T01:04:12.693Z,1.40
2023-02-19T01:06:41.204Z,1.20
2023-02-19T01:09:09.316Z,1.50
2023-02-19T01:11:38.796Z,1.30
2023-02-19T01:14:06.839Z,1.10
2023-02-19T01:16:34.880Z,1.07
2023-02-19T01:19:03.188Z,1.20
2023-02-19T01:21:32.661Z,1.00
2023-02-19T01:24:00.828Z,1.20
2023-02-19T01:26:31.238Z,1.30
2023-02-19T01:29:01.441Z,1.00
2023-02-19T01:31:31.025Z,1.30
2023-02-19T01:34:01.341Z,1.07
2023-02-19T01:36:31.492Z,1.27
2023-02-19T01:39:03.686Z,1.23
2023-02-19T01:41:32.528Z,1.00
2023-02-19T01:44:05.196Z,1.23
2023-02-19T01:46:33.999Z,0.87
2023-02-19T01:49:06.495Z,1.10
2023-02-19T01:51:37.195Z,0.90
2023-02-19T01:54:08.318Z,0.90
2023-02-19T01:56:39.433Z,1.03
2023-02-19T01:59:09.893Z,1.17
2023-02-19T02:01:40.292Z,1.77
2023-02-19T02:04:11.731Z,1.20
2023-02-19T02:06:49.632Z,1.10
2023-02-19T02:09:37.243Z,1.20
2023-02-19T02:12:05.665Z,1.00
2023-02-19T02:14:37.654Z,1.00
2023-02-19T02:17:16.690Z,1.00
2023-02-19T02:20:29.952Z,1.07
2023-02-19T02:23:07.230Z,0.83
2023-02-19T02:26:02.069Z,0.87
2023-02-19T02:29:03.944Z,1.00
2023-02-19T02:31:38.380Z,0.90
2023-02-19T02:34:14.042Z,1.23
2023-02-19T02:36:45.898Z,0.80
2023-02-19T02:39:18.446Z,1.23
2023-02-19T02:42:11.768Z,1.00
2023-02-19T02:45:05.476Z,1.10
2023-02-19T02:47:44.938Z,0.80
2023-02-19T02:50:18.451Z,1.00
2023-02-19T02:53:06.874Z,1.03
2023-02-19T02:55:41.059Z,0.97
2023-02-19T02:58:10.374Z,0.93
2023-02-19T03:00:57.706Z,1.20
2023-02-19T03:03:29.535Z,1.23
2023-02-19T03:06:06.042Z,1.10
2023-02-19T03:08:40.824Z,1.00
2023-02-19T03:11:29.531Z,1.43
2023-02-19T03:14:21.260Z,1.40
2023-02-19T03:17:23.698Z,1.30
2023-02-19T03:19:57.627Z,1.23
2023-02-19T03:22:29.215Z,1.00
2023-02-19T03:25:24.727Z,1.10
2023-02-19T03:27:53.542Z,1.27
2023-02-19T03:30:25.607Z,1.23
2023-02-19T03:32:56.819Z,1.20
2023-02-19T03:35:28.990Z,1.00
2023-02-19T03:38:03.647Z,1.00
2023-02-19T03:40:38.463Z,1.10
2023-02-19T03:43:19.176Z,1.10
2023-02-19T03:45:58.864Z,0.80
2023-02-19T03:48:35.283Z,1.03
2023-02-19T03:51:31.189Z,0.97
2023-02-19T03:54:12.187Z,1.20
2023-02-19T03:56:48.855Z,0.93
2023-02-19T03:59:22.295Z,1.17
2023-02-19T04:01:55.270Z,1.03
2023-02-19T04:04:28.664Z,1.13
2023-02-19T04:06:59.643Z,0.90
2023-02-19T04:09:32.006Z,1.00
2023-02-19T04:12:00.836Z,0.70
2023-02-19T04:14:34.333Z,0.90
2023-02-19T04:17:06.185Z,0.90
2023-02-19T04:19:38.601Z,0.70
2023-02-19T04:22:12.251Z,0.70
2023-02-19T04:24:44.211Z,0.80
2023-02-19T04:27:12.455Z,0.63
2023-02-19T04:29:40.784Z,0.60
2023-02-19T04:32:11.159Z,0.80
2023-02-19T04:34:39.207Z,1.03
2023-02-19T04:37:08.680Z,0.53
2023-02-19T04:39:36.770Z,0.67
2023-02-19T04:42:05.522Z,0.60
2023-02-19T04:44:37.967Z,0.50
2023-02-19T04:47:06.271Z,0.93
2023-02-19T04:49:34.452Z,0.50
2023-02-19T04:52:03.918Z,0.60
2023-02-19T04:54:33.372Z,0.70
2023-02-19T04:57:01.391Z,0.60
2023-02-19T04:59:29.683Z,0.60
2023-02-19T05:01:58.462Z,0.60
2023-02-19T05:04:26.724Z,0.53
2023-02-19T05:06:54.763Z,0.60
2023-02-19T05:09:22.832Z,0.57
2023-02-19T05:11:52.210Z,0.70
2023-02-19T05:14:20.246Z,0.50
2023-02-19T05:16:48.258Z,0.50
2023-02-19T05:19:16.235Z,0.70
2023-02-19T05:21:44.273Z,0.70
2023-02-19T05:24:12.275Z,0.60
2023-02-19T05:26:40.307Z,0.50
2023-02-19T05:29:09.682Z,0.67
2023-02-19T05:31:37.797Z,0.80
2023-02-19T05:34:05.840Z,0.67
2023-02-19T05:36:33.968Z,0.70
2023-02-19T05:39:01.963Z,0.70
2023-02-19T05:41:32.768Z,0.77
2023-02-19T05:44:00.786Z,0.80
2023-02-19T05:46:31.473Z,0.90
2023-02-19T05:48:59.730Z,0.70
2023-02-19T05:51:28.401Z,0.73
2023-02-19T05:53:57.757Z,0.70
2023-02-19T05:56:32.670Z,0.77
2023-02-19T05:59:03.830Z,0.80
2023-02-19T06:01:33.588Z,1.00
2023-02-19T06:04:02.051Z,0.90
2023-02-19T06:06:30.545Z,0.67
2023-02-19T06:08:58.684Z,1.00
2023-02-19T06:11:26.955Z,1.10
2023-02-19T06:13:55.017Z,1.00
2023-02-19T06:16:24.397Z,1.63
2023-02-19T06:18:53.911Z,3.10
2023-02-19T06:21:22.432Z,1.17
2023-02-19T06:23:50.470Z,0.90
2023-02-19T06:26:21.352Z,1.00
2023-02-19T06:28:51.618Z,0.83
2023-02-19T06:31:21.761Z,1.07
2023-02-19T06:33:50.671Z,1.43
2023-02-19T06:36:22.761Z,1.00
2023-02-19T06:38:51.278Z,1.37
2023-02-19T06:41:19.472Z,1.23
2023-02-19T06:43:47.610Z,0.97
2023-02-19T06:46:16.117Z,0.77
2023-02-19T06:48:46.127Z,1.03
2023-02-19T06:51:19.984Z,1.43
2023-02-19T06:53:49.694Z,1.07
2023-02-19T06:56:29.938Z,1.30
2023-02-19T06:59:05.926Z,0.80
2023-02-19T07:01:36.346Z,1.07
2023-02-19T07:04:05.776Z,0.83
2023-02-19T07:06:35.523Z,0.77
2023-02-19T07:09:07.133Z,1.03
2023-02-19T07:11:39.252Z,1.63
2023-02-19T07:14:09.954Z,1.00
2023-02-19T07:16:39.337Z,1.20
2023-02-19T07:19:07.430Z,1.00
2023-02-19T07:21:37.696Z,1.20
2023-02-19T07:24:07.774Z,1.10
2023-02-19T07:26:36.317Z,1.20
2023-02-19T07:29:04.813Z,1.23
2023-02-19T07:31:32.941Z,1.57
2023-02-19T07:34:00.941Z,1.70
2023-02-19T07:36:29.006Z,1.10
2023-02-19T07:38:58.140Z,1.27
2023-02-19T07:41:28.534Z,1.30
2023-02-19T07:43:56.490Z,1.00
2023-02-19T07:46:25.839Z,0.97
2023-02-19T07:48:54.294Z,0.83
2023-02-19T07:51:23.004Z,1.20
2023-02-19T07:53:51.394Z,1.00
2023-02-19T07:56:20.714Z,1.10
2023-02-19T07:58:50.448Z,1.00
2023-02-19T08:01:41.083Z,1.13
2023-02-19T08:04:08.416Z,1.10
2023-02-19T08:06:36.889Z,1.10
2023-02-19T08:09:06.582Z,1.20
2023-02-19T08:12:06.790Z,1.40
2023-02-19T08:14:37.960Z,1.70
2023-02-19T08:17:06.613Z,1.10
2023-02-19T08:19:34.671Z,1.33
2023-02-19T08:22:02.828Z,1.40
2023-02-19T08:24:31.115Z,1.00
2023-02-19T08:26:59.085Z,1.30
2023-02-19T08:29:27.414Z,1.23
2023-02-19T08:31:56.777Z,1.70
2023-02-19T08:34:24.822Z,1.40
2023-02-19T08:36:52.877Z,1.47
2023-02-19T08:39:21.235Z,1.30
2023-02-19T08:41:49.539Z,1.20
2023-02-19T08:44:17.647Z,1.30
2023-02-19T08:46:45.603Z,1.60
2023-02-19T08:49:16.384Z,1.20
2023-02-19T08:51:44.370Z,1.37
2023-02-19T08:54:12.384Z,1.50
2023-02-19T08:56:40.436Z,1.30
2023-02-19T08:59:08.484Z,1.60
2023-02-19T09:01:36.532Z,1.77
2023-02-19T09:04:04.726Z,1.50
2023-02-19T09:06:34.061Z,1.70
2023-02-19T09:09:02.064Z,1.30
2023-02-19T09:11:30.127Z,1.80
2023-02-19T09:13:58.442Z,1.40
2023-02-19T09:16:26.499Z,1.70
2023-02-19T09:18:54.550Z,1.80
2023-02-19T09:21:23.242Z,1.43
2023-02-19T09:23:52.646Z,1.33
2023-02-19T09:26:20.863Z,1.40
2023-02-19T09:28:48.928Z,1.70
2023-02-19T09:31:17.773Z,2.80
2023-02-19T09:33:47.913Z,2.07
2023-02-19T09:36:18.548Z,2.00
2023-02-19T09:38:46.851Z,1.40
2023-02-19T09:41:25.097Z,1.33
2023-02-19T09:43:53.730Z,1.73
2023-02-19T09:46:31.819Z,1.90
2023-02-19T09:49:06.672Z,1.67
2023-02-19T09:51:37.470Z,1.80
2023-02-19T09:54:08.636Z,1.80
2023-02-19T09:56:37.980Z,1.20
2023-02-19T09:59:07.828Z,1.57
2023-02-19T10:01:40.533Z,1.57
2023-02-19T10:04:12.674Z,1.80
2023-02-19T10:06:43.286Z,5.37
2023-02-19T10:09:22.555Z,1.50
2023-02-19T10:11:55.169Z,1.67
2023-02-19T10:14:31.276Z,1.70
2023-02-19T10:17:05.917Z,1.80
2023-02-19T10:19:34.874Z,2.97
2023-02-19T10:22:04.794Z,1.80
2023-02-19T10:24:35.886Z,2.23
2023-02-19T10:27:12.764Z,1.80
2023-02-19T10:29:40.991Z,1.97
2023-02-19T10:32:20.952Z,3.10
2023-02-19T10:34:49.130Z,1.60
2023-02-19T10:37:19.708Z,1.70
2023-02-19T10:39:50.700Z,1.40
2023-02-19T10:42:22.738Z,1.60
2023-02-19T10:44:59.854Z,4.17
2023-02-19T10:47:32.649Z,1.87
2023-02-19T10:50:04.517Z,6.97
2023-02-19T10:52:36.176Z,1.60
2023-02-19T10:55:21.581Z,1.80
2023-02-19T10:57:51.302Z,1.77
2023-02-19T11:00:26.830Z,2.03
2023-02-19T11:03:20.765Z,1.63
2023-02-19T11:05:57.096Z,1.40
2023-02-19T11:08:25.745Z,1.47
2023-02-19T11:10:53.795Z,1.80
2023-02-19T11:13:33.548Z,1.10
2023-02-19T11:16:06.363Z,1.40
2023-02-19T11:18:40.661Z,1.40
2023-02-19T11:21:17.878Z,1.60
2023-02-19T11:23:48.039Z,1.90
2023-02-19T11:26:20.852Z,1.80
2023-02-19T11:28:57.889Z,1.40
2023-02-19T11:31:29.552Z,1.27
2023-02-19T11:33:59.858Z,1.57
2023-02-19T11:36:34.884Z,1.67
2023-02-19T11:39:25.076Z,1.70
2023-02-19T11:42:31.143Z,1.77
2023-02-19T11:45:23.557Z,2.67
2023-02-19T11:48:25.621Z,2.10
2023-02-19T11:51:17.064Z,1.70
2023-02-19T11:53:50.017Z,1.87
2023-02-19T11:56:22.485Z,1.70
2023-02-19T11:59:01.695Z,1.60
2023-02-19T12:02:08.931Z,1.60
2023-02-19T12:05:17.946Z,1.43
2023-02-19T12:08:35.684Z,1.80
2023-02-19T12:11:31.790Z,1.87
2023-02-19T12:14:41.764Z,3.47
2023-02-19T12:17:22.217Z,2.40
2023-02-19T12:20:13.162Z,2.53
2023-02-19T12:22:51.859Z,3.50
2023-02-19T12:25:52.010Z,2.50
2023-02-19T12:28:56.165Z,1.60
2023-02-19T12:32:15.171Z,1.90
2023-02-19T12:35:27.557Z,1.93
2023-02-19T12:38:11.893Z,4.80
2023-02-19T12:40:53.855Z,4.60
2023-02-19T12:43:24.183Z,3.27
2023-02-19T12:45:58.021Z,1.83
2023-02-19T12:48:35.173Z,1.50
2023-02-19T12:51:09.310Z,2.43
2023-02-19T12:53:46.244Z,1.77
2023-02-19T12:56:19.750Z,1.30
2023-02-19T12:58:52.029Z,1.43
2023-02-19T13:01:26.357Z,1.40
2023-02-19T13:04:15.439Z,1.10
2023-02-19T13:06:49.335Z,1.70
2023-02-19T13:09:23.517Z,1.40
2023-02-19T13:11:55.880Z,1.40
2023-02-19T13:14:30.083Z,1.17
2023-02-19T13:17:04.055Z,1.30
2023-02-19T13:19:34.462Z,1.60
2023-02-19T13:22:34.044Z,1.10
2023-02-19T13:25:03.407Z,1.33
2023-02-19T13:28:08.747Z,1.37
2023-02-19T13:31:02.382Z,7.73
2023-02-19T13:33:46.413Z,2.73
2023-02-19T13:36:21.381Z,6.77
2023-02-19T13:38:51.196Z,7.83
2023-02-19T13:41:29.559Z,4.37
2023-02-19T13:44:02.433Z,2.20
2023-02-19T13:46:40.415Z,1.33
2023-02-19T13:49:43.259Z,1.30
2023-02-19T13:52:45.314Z,1.20
2023-02-19T13:55:53.130Z,1.20
2023-02-19T13:59:05.582Z,1.30
2023-02-19T14:02:28.358Z,1.33
2023-02-19T14:05:00.119Z,1.13
2023-02-19T14:07:56.695Z,1.20
2023-02-19T14:11:04.947Z,0.87
2023-02-19T14:14:06.602Z,0.83
2023-02-19T14:17:04.497Z,1.30
2023-02-19T14:20:04.943Z,1.33
2023-02-19T14:23:16.551Z,1.23
2023-02-19T14:25:56.033Z,1.20
2023-02-19T14:28:30.412Z,1.00
2023-02-19T14:31:01.620Z,1.00
2023-02-19T14:33:32.719Z,1.40
2023-02-19T14:36:19.302Z,1.03
2023-02-19T14:38:53.879Z,1.17
2023-02-19T14:41:23.975Z,1.10
2023-02-19T14:43:55.792Z,1.27
2023-02-19T14:46:31.141Z,1.00
2023-02-19T14:49:05.212Z,1.03
2023-02-19T14:51:37.763Z,1.30
2023-02-19T14:54:15.857Z,1.20
2023-02-19T14:56:47.024Z,1.20
2023-02-19T14:59:32.788Z,1.33
2023-02-19T15:02:03.558Z,0.90
2023-02-19T15:04:37.868Z,1.20
2023-02-19T15:07:11.377Z,1.20
2023-02-19T15:09:45.253Z,1.40
2023-02-19T15:12:18.428Z,1.37
2023-02-19T15:14:47.429Z,1.10
2023-02-19T15:17:23.331Z,0.80
2023-02-19T15:19:51.373Z,1.93
2023-02-19T15:22:23.481Z,1.00
2023-02-19T15:24:53.052Z,1.30
2023-02-19T15:27:24.794Z,1.03
2023-02-19T15:29:54.678Z,0.90
2023-02-19T15:32:26.317Z,0.90
2023-02-19T15:34:59.327Z,1.30
2023-02-19T15:37:29.927Z,1.50
2023-02-19T15:40:03.758Z,1.37
2023-02-19T15:42:35.755Z,1.37
2023-02-19T15:45:12.242Z,2.00
2023-02-19T15:47:46.764Z,1.47
2023-02-19T15:50:18.447Z,1.73
2023-02-19T15:52:51.779Z,1.50
2023-02-19T15:55:30.153Z,1.10
2023-02-19T15:58:03.900Z,1.60
2023-02-19T16:00:39.707Z,1.80
2023-02-19T16:03:14.597Z,2.73
2023-02-19T16:05:42.645Z,1.60
2023-02-19T16:08:21.674Z,1.50
2023-02-19T16:11:00.230Z,1.40
2023-02-19T16:13:30.931Z,1.60
2023-02-19T16:16:05.236Z,1.53
2023-02-19T16:18:34.037Z,1.73
2023-02-19T16:21:04.785Z,1.27
2023-02-19T16:23:33.010Z,1.50
2023-02-19T16:26:03.725Z,2.53
2023-02-19T16:28:39.622Z,1.50
2023-02-19T16:31:10.917Z,1.67
2023-02-19T16:33:46.133Z,1.60
2023-02-19T16:36:26.262Z,1.07
2023-02-19T16:39:24.111Z,3.43
2023-02-19T16:42:20.589Z,1.27
2023-02-19T16:44:50.153Z,2.67
2023-02-19T16:47:36.458Z,2.00
2023-02-19T16:50:14.196Z,1.80
2023-02-19T16:52:53.122Z,1.03
2023-02-19T16:55:21.187Z,3.67
2023-02-19T16:57:51.294Z,17.37
2023-02-19T17:00:21.236Z,2.57
2023-02-19T17:02:51.263Z,15.67
2023-02-19T17:05:22.287Z,2.80
2023-02-19T17:07:50.851Z,2.20
2023-02-19T17:10:22.946Z,3.17
2023-02-19T17:12:52.822Z,2.20
2023-02-19T17:15:20.982Z,2.37
2023-02-19T17:17:49.428Z,1.83
2023-02-19T17:20:27.495Z,3.90
2023-02-19T17:22:55.594Z,2.30
2023-02-19T17:25:24.439Z,2.83
2023-02-19T17:27:53.851Z,3.60
2023-02-19T17:30:29.958Z,4.10
2023-02-19T17:32:58.246Z,1.80
2023-02-19T17:35:26.795Z,1.17
2023-02-19T17:37:54.862Z,8.60
2023-02-19T17:40:32.602Z,6.53
2023-02-19T17:43:02.503Z,1.90
2023-02-19T17:45:33.056Z,7.00
2023-02-19T17:48:03.952Z,2.70
2023-02-19T17:50:33.735Z,5.73
2023-02-19T17:53:01.832Z,7.00
2023-02-19T17:55:29.859Z,9.10
2023-02-19T17:57:58.185Z,2.60
2023-02-19T18:00:30.076Z,6.30
2023-02-19T18:02:58.325Z,2.90
2023-02-19T18:05:26.356Z,4.67
2023-02-19T18:07:54.559Z,2.40
2023-02-19T18:10:25.191Z,2.50
2023-02-19T18:12:53.593Z,4.60
2023-02-19T18:15:26.147Z,6.57
2023-02-19T18:17:57.085Z,9.33
2023-02-19T18:20:27.653Z,8.80
2023-02-19T18:22:57.187Z,11.27
2023-02-19T18:25:26.233Z,9.37
2023-02-19T18:27:54.481Z,4.87
2023-02-19T18:30:23.865Z,2.50
2023-02-19T18:32:52.611Z,2.43
2023-02-19T18:35:22.350Z,1.80
2023-02-19T18:37:52.674Z,2.10
2023-02-19T18:40:21.696Z,1.90
2023-02-19T18:42:50.158Z,1.53
2023-02-19T18:45:18.642Z,2.30
2023-02-19T18:47:48.590Z,3.50
2023-02-19T18:50:18.077Z,3.07
2023-02-19T18:52:53.315Z,2.83
2023-02-19T18:55:21.314Z,2.10
2023-02-19T18:57:50.065Z,2.10
2023-02-19T19:00:20.793Z,1.47
2023-02-19T19:02:50.767Z,2.47
2023-02-19T19:05:23.060Z,1.70
2023-02-19T19:07:55.018Z,1.70
2023-02-19T19:10:23.651Z,1.67
2023-02-19T19:12:52.080Z,1.30
2023-02-19T19:15:20.740Z,2.00
2023-02-19T19:17:50.419Z,3.07
2023-02-19T19:20:21.207Z,1.73
2023-02-19T19:22:51.733Z,3.70
2023-02-19T19:25:20.098Z,2.10
2023-02-19T19:27:50.497Z,1.50
2023-02-19T19:30:19.925Z,2.07
2023-02-19T19:32:49.530Z,2.03
2023-02-19T19:35:19.717Z,1.90
2023-02-19T19:37:48.271Z,2.30
2023-02-19T19:40:19.110Z,1.90
2023-02-19T19:42:47.579Z,2.13
2023-02-19T19:45:17.651Z,1.97
2023-02-19T19:47:45.670Z,2.20
2023-02-19T19:50:14.577Z,2.20
2023-02-19T19:52:42.580Z,1.63
2023-02-19T19:55:11.330Z,2.13
2023-02-19T19:57:42.853Z,2.73
2023-02-19T20:00:17.739Z,1.40
2023-02-19T20:02:46.932Z,1.90
2023-02-19T20:05:16.831Z,1.77
2023-02-19T20:07:48.465Z,1.87
2023-02-19T20:10:20.194Z,2.70
2023-02-19T20:12:52.783Z,2.60
2023-02-19T20:15:26.593Z,2.10
2023-02-19T20:17:59.908Z,1.70
2023-02-19T20:20:34.084Z,2.30
2023-02-19T20:23:02.640Z,2.40
2023-02-19T20:25:30.678Z,2.73
2023-02-19T20:27:59.995Z,4.77
2023-02-19T20:30:28.106Z,2.70
2023-02-19T20:32:56.340Z,5.80
2023-02-19T20:35:29.012Z,4.97
2023-02-19T20:37:58.262Z,5.10
2023-02-19T20:40:30.320Z,14.83
2023-02-19T20:43:01.018Z,10.60
2023-02-19T20:45:30.767Z,6.77
2023-02-19T20:48:02.815Z,15.27
2023-02-19T20:50:31.588Z,8.00
2023-02-19T20:52:59.582Z,5.50
2023-02-19T20:55:28.644Z,7.97
2023-02-19T20:57:57.115Z,7.63
2023-02-19T21:00:28.427Z,4.70
2023-02-19T21:02:56.561Z,6.00
2023-02-19T21:05:25.287Z,4.90
2023-02-19T21:07:54.150Z,4.97
2023-02-19T21:10:22.124Z,4.40
2023-02-19T21:12:51.969Z,5.10
2023-02-19T21:15:20.052Z,7.60
2023-02-19T21:17:50.873Z,6.10
2023-02-19T21:20:21.968Z,4.20
2023-02-19T21:22:51.084Z,3.57
2023-02-19T21:25:21.856Z,4.73
2023-02-19T21:27:49.899Z,5.27
2023-02-19T21:30:19.469Z,7.80
2023-02-19T21:32:48.947Z,4.87
2023-02-19T21:35:18.025Z,11.10
2023-02-19T21:37:46.087Z,8.90
2023-02-19T21:40:14.781Z,8.47
2023-02-19T21:42:42.843Z,6.00
2023-02-19T21:45:11.144Z,5.00
2023-02-19T21:47:39.415Z,3.40
2023-02-19T21:50:09.791Z,3.10
2023-02-19T21:52:37.906Z,3.53
2023-02-19T21:55:06.788Z,4.30
2023-02-19T21:57:34.792Z,3.43
2023-02-19T22:00:03.268Z,3.97
2023-02-19T22:02:31.354Z,4.20
2023-02-19T22:04:59.953Z,4.40
2023-02-19T22:07:30.436Z,4.13
2023-02-19T22:09:58.481Z,3.77
2023-02-19T22:12:26.498Z,3.30
2023-02-19T22:14:54.527Z,4.53
2023-02-19T22:17:22.756Z,3.50
2023-02-19T22:19:50.718Z,2.97
2023-02-19T22:22:18.919Z,2.90
2023-02-19T22:24:48.224Z,3.57
2023-02-19T22:27:16.223Z,3.63
2023-02-19T22:29:44.202Z,4.30
2023-02-19T22:32:12.327Z,3.90
2023-02-19T22:34:41.859Z,5.77
2023-02-19T22:37:11.861Z,5.37
2023-02-19T22:39:39.870Z,5.60
2023-02-19T22:42:09.223Z,4.77
2023-02-19T22:44:37.291Z,4.23
2023-02-19T22:47:05.532Z,4.10
2023-02-19T22:49:33.572Z,5.20
2023-02-19T22:52:05.046Z,4.40
2023-02-19T22:54:33.025Z,4.53
2023-02-19T22:57:01.150Z,3.93
2023-02-19T22:59:30.515Z,4.17
2023-02-19T23:01:58.934Z,4.77
2023-02-19T23:04:27.531Z,5.23
2023-02-19T23:06:55.610Z,3.93
2023-02-19T23:09:27.222Z,4.73
2023-02-19T23:12:02.348Z,4.53
2023-02-19T23:14:31.769Z,4.37
2023-02-19T23:17:00.122Z,2.73
2023-02-19T23:19:28.383Z,3.20
2023-02-19T23:22:00.506Z,3.77
2023-02-19T23:24:28.887Z,3.70
2023-02-19T23:26:56.968Z,5.40
2023-02-19T23:29:27.913Z,3.97
2023-02-19T23:31:57.397Z,3.30
2023-02-19T23:34:25.471Z,3.17
2023-02-19T23:36:55.362Z,3.70
2023-02-19T23:39:23.537Z,3.57
2023-02-19T23:41:53.846Z,3.20
2023-02-19T23:44:23.988Z,3.13
2023-02-19T23:46:53.254Z,3.30
2023-02-19T23:49:24.010Z,3.50
2023-02-19T23:51:52.314Z,3.90
2023-02-19T23:54:20.340Z,3.70
2023-02-19T23:56:48.401Z,3.40
2023-02-19T23:59:16.519Z,3.53
